createdAt,value
2019-03-30T07:51:22.324Z,99.90
2019-03-30T07:54:45.181Z,99.90
2019-03-30T07:58:08.105Z,99.90
2019-03-30T08:01:31.043Z,99.90
2019-03-30T08:04:53.991Z,99.90
2019-03-30T08:08:17.287Z,99.90
2019-03-30T08:11:40.476Z,99.90
2019-03-30T08:15:03.506Z,99.90
2019-03-30T08:18:26.470Z,99.90
2019-03-30T08:21:49.075Z,99.90
2019-03-30T08:25:12.897Z,99.90
2019-03-30T08:28:35.880Z,99.90
2019-03-30T08:31:58.722Z,99.90
2019-03-30T08:35:21.919Z,99.90
2019-03-30T08:38:44.782Z,99.90
2019-03-30T09:01:04.473Z,99.90
2019-03-30T09:04:27.492Z,99.90
2019-03-30T09:07:50.707Z,99.90
2019-03-30T09:11:13.695Z,99.90
2019-03-30T09:14:36.892Z,99.90
2019-03-30T09:17:59.863Z,99.90
2019-03-30T09:21:22.520Z,99.90
2019-03-30T09:24:45.490Z,99.90
2019-03-30T09:28:08.480Z,99.90
2019-03-30T09:31:31.243Z,99.90
2019-03-30T09:34:53.842Z,99.90
2019-03-30T09:38:17.034Z,99.90
2019-03-30T09:41:39.810Z,99.90
2019-03-30T09:45:02.727Z,99.90
2019-03-30T09:48:25.525Z,99.90
2019-03-30T09:51:48.375Z,99.90
2019-03-30T09:55:29.886Z,99.90
2019-03-30T09:58:52.770Z,99.90
2019-03-30T10:02:15.934Z,99.90
2019-03-30T10:05:38.761Z,99.90
2019-03-30T10:09:01.948Z,99.90
2019-03-30T10:12:24.999Z,99.90
2019-03-30T10:15:47.891Z,99.90
2019-03-30T10:19:10.327Z,99.90
2019-03-30T10:22:33.107Z,99.90
2019-03-30T10:25:55.885Z,99.90
2019-03-30T10:29:18.480Z,99.90
2019-03-30T10:32:41.322Z,99.90
2019-03-30T10:36:04.297Z,99.90
2019-03-30T10:39:27.221Z,99.90
2019-03-30T10:42:50.127Z,99.90
2019-03-30T10:46:12.871Z,99.90
2019-03-30T10:49:35.987Z,99.90
2019-03-30T10:52:59.184Z,99.90
2019-03-30T10:56:22.186Z,99.90
2019-03-30T10:59:44.885Z,99.90
2019-03-30T11:03:08.005Z,99.90
2019-03-30T11:06:31.139Z,99.90
2019-03-30T11:09:54.096Z,99.90
2019-03-30T11:13:17.101Z,99.90
2019-03-30T11:16:40.015Z,99.90
2019-03-30T11:20:03.082Z,99.90
2019-03-30T11:23:25.653Z,99.90
2019-03-30T11:26:48.877Z,99.90
2019-03-30T11:30:11.529Z,99.90
2019-03-30T11:33:34.470Z,99.90
2019-03-30T11:36:57.781Z,99.90
2019-03-30T11:40:20.745Z,99.90
2019-03-30T11:43:43.831Z,99.90
2019-03-30T11:47:06.735Z,99.90
2019-03-30T11:50:29.298Z,99.90
2019-03-30T11:53:52.284Z,99.90
2019-03-30T11:57:15.177Z,99.90
2019-03-30T12:00:38.301Z,99.90
2019-03-30T12:04:01.475Z,99.90
2019-03-30T12:07:24.717Z,99.90
2019-03-30T12:10:47.624Z,99.90
2019-03-30T12:14:10.700Z,99.90
2019-03-30T12:17:33.566Z,99.90
2019-03-30T12:20:56.844Z,99.90
2019-03-30T12:24:19.474Z,99.90
2019-03-30T12:27:42.522Z,99.90
2019-03-30T12:31:05.511Z,99.90
2019-03-30T12:34:28.704Z,99.90
2019-03-30T12:37:51.626Z,97.10
2019-03-30T12:41:14.586Z,95.30
2019-03-30T12:44:37.565Z,94.40
2019-03-30T12:48:00.511Z,95.80
2019-03-30T12:51:23.375Z,95.50
2019-03-30T12:54:46.486Z,95.30
2019-03-30T12:58:09.414Z,94.40
2019-03-30T13:01:32.518Z,94.90
2019-03-30T13:04:55.951Z,94.90
2019-03-30T13:08:18.831Z,95.70
2019-03-30T13:11:41.997Z,93.50
2019-03-30T13:15:05.520Z,93.00
2019-03-30T13:18:28.214Z,92.90
2019-03-30T13:21:52.880Z,93.80
2019-03-30T13:25:15.888Z,93.60
2019-03-30T13:28:39.054Z,92.40
2019-03-30T13:32:02.044Z,92.30
2019-03-30T13:35:25.312Z,92.50
2019-03-30T13:38:48.324Z,93.00
2019-03-30T13:42:10.964Z,93.50
2019-03-30T13:45:33.606Z,93.70
2019-03-30T13:48:56.523Z,93.30
2019-03-30T13:52:19.247Z,92.50
2019-03-30T13:55:41.940Z,92.90
2019-03-30T13:59:04.722Z,92.70
2019-03-30T14:02:28.047Z,92.20
2019-03-30T14:05:51.028Z,91.40
2019-03-30T14:09:14.231Z,91.80
2019-03-30T14:12:37.537Z,92.10
2019-03-30T14:16:00.459Z,92.50
2019-03-30T14:19:23.543Z,92.50
2019-03-30T14:22:46.853Z,92.80
2019-03-30T14:26:09.879Z,92.90
2019-03-30T14:29:32.602Z,93.00
2019-03-30T14:32:55.273Z,92.80
2019-03-30T14:36:18.227Z,93.50
2019-03-30T14:39:40.981Z,93.50
2019-03-30T14:43:04.321Z,93.20
2019-03-30T14:46:27.460Z,93.20
2019-03-30T14:49:50.713Z,93.00
2019-03-30T14:53:13.958Z,93.10
2019-03-30T14:56:45.388Z,93.30
2019-03-30T15:00:01.879Z,93.60
2019-03-30T15:03:24.763Z,93.20
2019-03-30T15:06:47.683Z,93.00
2019-03-30T15:10:11.306Z,92.90
2019-03-30T15:13:34.474Z,93.60
2019-03-30T15:17:01.004Z,93.90
2019-03-30T15:20:23.980Z,94.10
2019-03-30T15:23:46.907Z,93.80
2019-03-30T15:27:09.488Z,95.00
2019-03-30T15:30:32.407Z,95.00
2019-03-30T15:33:55.632Z,94.50
2019-03-30T15:37:18.989Z,95.40
2019-03-30T15:40:41.898Z,95.00
2019-03-30T15:44:04.619Z,95.40
2019-03-30T15:47:27.172Z,94.90
2019-03-30T15:50:50.204Z,94.30
2019-03-30T15:54:13.104Z,93.80
2019-03-30T15:57:35.734Z,92.80
2019-03-30T16:00:59.061Z,92.70
2019-03-30T16:04:22.178Z,92.90
2019-03-30T16:07:45.479Z,92.60
2019-03-30T16:11:08.654Z,93.20
2019-03-30T16:14:31.647Z,93.50
2019-03-30T16:17:54.276Z,94.40
2019-03-30T16:21:17.329Z,93.20
2019-03-30T16:24:40.499Z,93.00
2019-03-30T16:28:03.526Z,92.70
2019-03-30T16:31:26.613Z,92.90
2019-03-30T16:34:49.629Z,93.70
2019-03-30T16:38:12.636Z,94.00
2019-03-30T16:41:35.625Z,94.40
2019-03-30T16:44:58.935Z,94.30
2019-03-30T16:48:21.819Z,94.60
2019-03-30T16:51:45.137Z,94.60
2019-03-30T16:55:08.047Z,94.60
2019-03-30T16:58:31.012Z,95.00
2019-03-30T17:01:53.969Z,95.30
2019-03-30T17:05:16.937Z,96.30
2019-03-30T17:08:39.837Z,96.50
2019-03-30T17:12:02.908Z,96.50
2019-03-30T17:15:26.435Z,96.10
2019-03-30T17:18:49.203Z,96.40
2019-03-30T17:22:12.212Z,96.70
2019-03-30T17:25:35.377Z,97.10
2019-03-30T17:28:58.271Z,97.90
2019-03-30T17:32:21.136Z,98.40
2019-03-30T17:35:44.114Z,99.30
2019-03-30T17:39:10.188Z,99.50
2019-03-30T17:42:32.976Z,99.80
2019-03-30T17:45:56.250Z,99.90
2019-03-30T17:49:19.000Z,99.90
2019-03-30T17:52:41.914Z,99.90
2019-03-30T17:56:05.215Z,99.90
2019-03-30T17:59:28.475Z,99.90
2019-03-30T18:02:51.303Z,99.90
2019-03-30T18:06:14.445Z,99.90
2019-03-30T18:09:37.410Z,99.90
2019-03-30T18:13:00.696Z,99.90
2019-03-30T18:16:23.797Z,99.90
2019-03-30T18:19:46.743Z,99.90
2019-03-30T18:23:09.435Z,99.90
2019-03-30T18:26:33.427Z,99.90
2019-03-30T18:29:56.247Z,99.90
2019-03-30T18:33:19.175Z,99.90
2019-03-30T18:36:44.627Z,99.90
2019-03-30T18:40:08.194Z,99.90
2019-03-30T18:43:31.363Z,99.90
2019-03-30T18:46:54.338Z,99.90
2019-03-30T18:50:17.595Z,99.90
2019-03-30T18:53:40.252Z,99.90
2019-03-30T18:57:03.592Z,99.90
2019-03-30T19:00:27.666Z,99.90
2019-03-30T19:03:50.487Z,99.90
2019-03-30T19:07:13.791Z,99.90
2019-03-30T19:10:36.758Z,99.90
2019-03-30T19:13:59.456Z,99.90
2019-03-30T19:17:22.227Z,99.90
2019-03-30T19:20:45.185Z,99.90
2019-03-30T19:24:08.099Z,99.90
2019-03-30T19:27:31.289Z,99.90
2019-03-30T19:30:54.317Z,99.90
2019-03-30T19:34:17.518Z,99.90
2019-03-30T19:37:40.347Z,99.90
2019-03-30T19:41:03.731Z,99.90
2019-03-30T19:44:26.675Z,99.90
2019-03-30T19:47:49.772Z,99.90
2019-03-30T19:51:13.136Z,99.90
2019-03-30T19:54:36.054Z,99.90
2019-03-30T19:57:59.053Z,99.90
2019-03-30T20:01:22.066Z,99.90
2019-03-30T20:04:45.327Z,99.90
2019-03-30T20:08:12.355Z,99.90
2019-03-30T20:11:33.253Z,99.90
2019-03-30T20:14:56.375Z,99.90
2019-03-30T20:18:19.661Z,99.90
2019-03-30T20:21:42.320Z,99.90
2019-03-30T20:25:06.426Z,99.90
2019-03-30T20:28:29.471Z,99.90
2019-03-30T20:31:52.649Z,99.90
2019-03-30T20:35:15.591Z,99.90
2019-03-30T20:38:38.466Z,99.90
2019-03-30T20:42:01.112Z,99.90
2019-03-30T20:45:24.082Z,99.90
2019-03-30T20:48:47.332Z,99.90
2019-03-30T20:52:10.255Z,99.90
2019-03-30T20:55:34.083Z,99.90
2019-03-30T20:58:57.338Z,99.90
2019-03-30T21:02:20.175Z,99.90
2019-03-30T21:05:43.010Z,99.90
2019-03-30T21:09:07.780Z,99.90
2019-03-30T21:12:30.410Z,99.90
2019-03-30T21:15:53.647Z,99.90
2019-03-30T21:19:16.510Z,99.90
2019-03-30T21:22:39.371Z,99.90
2019-03-30T21:26:01.936Z,99.90
2019-03-30T21:29:24.850Z,99.90
2019-03-30T21:32:47.947Z,99.90
2019-03-30T21:36:11.007Z,99.90
2019-03-30T21:39:34.275Z,99.90
2019-03-30T21:42:57.087Z,99.90
2019-03-30T21:46:20.183Z,99.90
2019-03-30T21:49:43.067Z,99.90
2019-03-30T21:53:06.007Z,99.90
2019-03-30T21:56:28.607Z,99.90
2019-03-30T21:59:51.530Z,99.90
2019-03-30T22:03:14.722Z,99.90
2019-03-30T22:06:38.162Z,99.90
2019-03-30T22:10:01.426Z,99.90
2019-03-30T22:13:24.640Z,99.90
2019-03-30T22:16:47.643Z,99.90
2019-03-30T22:20:10.278Z,99.90
2019-03-30T22:23:33.192Z,99.90
2019-03-30T22:26:56.375Z,99.90
2019-03-30T22:30:24.977Z,99.90
2019-03-30T22:33:43.564Z,99.90
2019-03-30T22:37:06.278Z,99.90
2019-03-30T22:40:29.244Z,99.90
2019-03-30T22:43:52.342Z,99.90
2019-03-30T22:47:15.543Z,99.90
2019-03-30T22:50:38.559Z,99.90
2019-03-30T22:54:01.735Z,99.90
2019-03-30T22:57:24.382Z,99.90
2019-03-30T23:00:55.900Z,99.90
2019-03-30T23:04:19.139Z,99.90
2019-03-30T23:07:42.590Z,99.90
2019-03-30T23:11:05.659Z,99.90
2019-03-30T23:14:28.872Z,99.90
2019-03-30T23:17:51.917Z,99.90
2019-03-30T23:21:15.011Z,99.90
2019-03-30T23:24:38.258Z,99.90
2019-03-30T23:28:01.351Z,99.90
2019-03-30T23:31:24.138Z,99.90
2019-03-30T23:34:47.283Z,99.90
2019-03-30T23:38:10.663Z,99.90
2019-03-30T23:41:33.743Z,99.90
2019-03-30T23:44:56.844Z,99.90
2019-03-30T23:48:20.114Z,99.90
2019-03-30T23:51:43.366Z,99.90
2019-03-30T23:55:06.843Z,99.90
2019-03-30T23:58:29.839Z,99.90
